Time;durP1;ratioP1;P1;durP2;ratioP2;P2;SDS_P1;SDS_P2;PMS_P1;PMS_P2;Temp;Humidity;BMP_temperature;BMP_pressure;BME280_temperature;BME280_humidity;BME280_pressure;Samples;Min_cycle;Max_cycle;Signal;HPM_P1;HPM_P2
2023/05/03 00:01:43;;;;;;;0.20;0.20;;;;;;;22.67;41.76;101833.19;4569022;27;20036;-57
2023/05/03 00:03:53;;;;;;;0.20;0.20;;;;;;;22.61;41.47;101814.44;4570824;27;20476;-58
2023/05/03 00:06:14;;;;;;;0.10;0.10;;;;;;;22.67;41.17;101821.66;4569927;27;20559;-58
2023/05/03 00:08:25;;;;;;;0.10;0.10;;;;;;;22.63;41.12;101814.94;4570911;27;20035;-58
2023/05/03 00:10:36;;;;;;;0.10;0.10;;;;;;;22.63;41.87;101818.66;4571886;27;20111;-57
2023/05/03 00:12:46;;;;;;;0.10;0.10;;;;;;;22.64;41.42;101820.34;4568184;27;20167;-58
2023/05/03 00:14:57;;;;;;;0.10;0.10;;;;;;;22.64;40.92;101825.25;4554766;27;20033;-57
2023/05/03 00:17:07;;;;;;;0.20;0.20;;;;;;;22.64;41.91;101816.63;4569713;27;20025;-58
2023/05/03 00:19:18;;;;;;;0.40;0.20;;;;;;;22.62;43.06;101824.75;4568049;27;20039;-58
2023/05/03 00:21:28;;;;;;;0.47;0.13;;;;;;;22.59;42.03;101822.59;4569722;27;20683;-58
2023/05/03 00:23:39;;;;;;;0.32;0.20;;;;;;;22.61;41.88;101818.16;4569433;27;20055;-58
2023/05/03 00:25:57;;;;;;;0.20;0.20;;;;;;;22.62;41.88;101814.09;4570654;27;20055;-57
2023/05/03 00:28:08;;;;;;;0.65;0.10;;;;;;;22.62;43.12;101816.97;4569789;27;20129;-58
2023/05/03 00:30:18;;;;;;;0.20;0.20;;;;;;;22.59;41.87;101811.06;4569513;27;20113;-58
2023/05/03 00:32:29;;;;;;;0.22;0.22;;;;;;;22.61;43.25;101817.31;4568219;27;20089;-57
2023/05/03 00:34:39;;;;;;;0.35;0.20;;;;;;;22.60;41.77;101809.88;4554512;27;20055;-58
2023/05/03 00:36:50;;;;;;;0.22;0.20;;;;;;;22.54;42.09;101802.66;4570704;27;20441;-57
2023/05/03 00:39:00;;;;;;;0.20;0.20;;;;;;;22.58;42.25;101815.16;4571491;27;20888;-58
2023/05/03 00:41:12;;;;;;;0.20;0.20;;;;;;;22.59;41.10;101819.69;4538820;27;20029;-58
2023/05/03 00:43:22;;;;;;;0.10;0.10;;;;;;;22.58;42.49;101815.97;4554492;27;20120;-57
2023/05/03 00:45:33;;;;;;;0.20;0.20;;;;;;;22.57;43.45;101816.31;4573201;27;20674;-58
2023/05/03 00:47:43;;;;;;;0.40;0.20;;;;;;;22.57;43.58;101813.44;4571357;27;20465;-58
2023/05/03 00:49:54;;;;;;;0.10;0.10;;;;;;;22.57;43.66;101817.19;4554384;27;20172;-57
2023/05/03 00:52:05;;;;;;;0.13;0.10;;;;;;;22.54;43.26;101811.28;4568975;27;20040;-57
2023/05/03 00:54:16;;;;;;;0.20;0.20;;;;;;;22.53;43.36;101816.22;4543973;27;20041;-57
2023/05/03 00:56:27;;;;;;;0.38;0.30;;;;;;;22.57;44.77;101822.94;4570360;27;20036;-57
2023/05/03 00:58:39;;;;;;;0.10;0.10;;;;;;;22.57;44.73;101819.19;4555072;27;20771;-57
2023/05/03 01:00:49;;;;;;;0.52;0.20;;;;;;;22.52;44.29;101808.75;4554145;27;20150;-58
2023/05/03 01:03:00;;;;;;;0.10;0.10;;;;;;;22.49;44.17;101799.94;4569750;27;20032;-58
2023/05/03 01:05:11;;;;;;;0.22;0.20;;;;;;;22.52;45.10;101802.16;4569147;27;20040;-58
2023/05/03 01:07:49;;;;;;;0.10;0.10;;;;;;;22.56;45.25;101815.50;4553307;27;20036;-57
2023/05/03 01:10:22;;;;;;;0.20;0.20;;;;;;;22.49;44.29;101808.56;4557043;27;20119;-57
2023/05/03 01:12:49;;;;;;;0.10;0.10;;;;;;;22.53;44.79;101813.34;4569972;27;20036;-57
2023/05/03 01:15:24;;;;;;;0.30;0.20;;;;;;;22.52;44.96;101811.63;4571458;27;20043;-57
2023/05/03 01:17:46;;;;;;;0.20;0.10;;;;;;;22.52;44.86;101817.38;4552149;27;20051;-57
2023/05/03 01:20:04;;;;;;;0.25;0.25;;;;;;;22.46;45.20;101809.28;4570044;27;20031;-57
2023/05/03 01:22:24;;;;;;;0.28;0.20;;;;;;;22.52;45.18;101819.41;4568658;27;20032;-58
2023/05/03 01:24:37;;;;;;;0.63;0.30;;;;;;;22.48;44.68;101812.66;4550933;27;20032;-57
2023/05/03 01:26:48;;;;;;;0.20;0.20;;;;;;;22.47;44.92;101817.56;4554468;28;20043;-57
2023/05/03 01:28:59;;;;;;;0.47;0.20;;;;;;;22.44;44.38;101811.69;4566871;27;20028;-57
2023/05/03 01:31:12;;;;;;;0.10;0.10;;;;;;;22.50;45.41;101827.53;4567683;27;20054;-57
2023/05/03 01:33:39;;;;;;;0.20;0.20;;;;;;;22.49;44.58;101826.69;4541800;27;21033;-57
2023/05/03 01:35:58;;;;;;;0.20;0.20;;;;;;;22.50;44.87;101821.78;4573282;27;21258;-57
2023/05/03 01:38:11;;;;;;;0.20;0.20;;;;;;;22.48;44.95;101827.03;4571487;27;20040;-57
2023/05/03 01:40:23;;;;;;;0.22;0.22;;;;;;;22.48;44.91;101829.91;4574480;27;20028;-57
2023/05/03 01:42:36;;;;;;;0.20;0.20;;;;;;;22.47;44.78;101831.13;4555019;27;20036;-57
2023/05/03 01:44:48;;;;;;;0.20;0.20;;;;;;;22.47;45.11;101834.81;4573731;27;20615;-57
2023/05/03 01:47:00;;;;;;;0.20;0.20;;;;;;;22.43;45.20;101827.25;4573116;27;20043;-57
2023/05/03 01:49:11;;;;;;;0.17;0.13;;;;;;;22.45;45.16;101840.09;4556204;27;20032;-57
2023/05/03 01:51:22;;;;;;;0.20;0.20;;;;;;;22.42;44.91;101837.91;4574914;27;20765;-56
2023/05/03 01:53:33;;;;;;;0.40;0.30;;;;;;;22.46;44.76;101841.78;4571834;27;20040;-59
2023/05/03 01:55:43;;;;;;;0.10;0.10;;;;;;;22.41;44.45;101833.34;4576086;27;20446;-58
2023/05/03 01:57:55;;;;;;;0.10;0.10;;;;;;;22.44;44.80;101834.72;4572335;27;20032;-57
2023/05/03 02:00:06;;;;;;;0.10;0.10;;;;;;;22.44;45.33;101843.34;4542303;27;20406;-58
2023/05/03 02:02:23;;;;;;;0.20;0.20;;;;;;;22.29;45.60;101812.28;4570862;27;20095;-57
2023/05/03 02:04:33;;;;;;;0.20;0.20;;;;;;;22.43;45.49;101844.50;4572710;27;20040;-57
2023/05/03 02:06:43;;;;;;;0.20;0.20;;;;;;;22.39;45.54;101838.59;4575545;27;20116;-57
2023/05/03 02:08:54;;;;;;;0.20;0.10;;;;;;;22.27;45.27;101823.31;4573050;27;20492;-57
2023/05/03 02:11:05;;;;;;;0.10;0.10;;;;;;;22.38;45.34;101848.44;4558165;27;20036;-57
2023/05/03 02:13:15;;;;;;;0.20;0.20;;;;;;;22.39;45.64;101846.41;4556452;27;20024;-57
2023/05/03 02:15:26;;;;;;;0.20;0.20;;;;;;;22.37;45.78;101851.66;4554230;27;20043;-57
2023/05/03 02:17:37;;;;;;;0.70;0.20;;;;;;;22.40;45.40;101857.56;4541055;27;20148;-57
2023/05/03 02:19:48;;;;;;;0.40;0.20;;;;;;;22.38;45.24;101857.06;4570101;27;20029;-57
2023/05/03 02:21:58;;;;;;;0.30;0.30;;;;;;;22.38;45.26;101857.06;4572152;27;20044;-57
2023/05/03 02:24:09;;;;;;;0.22;0.22;;;;;;;22.39;45.28;101855.03;4570604;27;20036;-57
2023/05/03 02:26:19;;;;;;;0.15;0.15;;;;;;;22.36;45.54;101861.50;4571115;27;20060;-58
2023/05/03 02:28:30;;;;;;;0.20;0.20;;;;;;;22.37;45.30;101851.66;4571590;27;20043;-58
2023/05/03 02:30:41;;;;;;;0.20;0.20;;;;;;;22.37;45.41;101855.41;4572123;27;20123;-57
2023/05/03 02:32:52;;;;;;;0.20;0.20;;;;;;;22.38;45.54;101859.09;4555637;27;20605;-57
2023/05/03 02:35:05;;;;;;;0.13;0.13;;;;;;;22.37;45.59;101860.28;4571323;27;20036;-57
2023/05/03 02:37:16;;;;;;;0.20;0.20;;;;;;;22.23;45.58;101841.25;4557692;28;20032;-57
2023/05/03 02:39:28;;;;;;;0.13;0.10;;;;;;;22.34;45.24;101866.75;4552873;27;20037;-57
2023/05/03 02:41:39;;;;;;;0.63;0.20;;;;;;;22.35;45.56;101866.41;4556041;27;20028;-58
2023/05/03 02:43:49;;;;;;;0.17;0.17;;;;;;;22.32;45.32;101867.09;4556524;27;20063;-57
2023/05/03 02:45:59;;;;;;;1.25;0.20;;;;;;;22.33;45.23;101862.16;4556093;27;20087;-57
2023/05/03 02:48:11;;;;;;;0.52;0.20;;;;;;;22.33;45.68;101860.16;4569532;27;20033;-57
2023/05/03 02:50:21;;;;;;;0.73;0.20;;;;;;;22.34;45.56;101867.59;4569119;27;20024;-57
2023/05/03 02:52:32;;;;;;;0.38;0.13;;;;;;;22.33;45.48;101871.66;4574626;27;20032;-57
2023/05/03 02:54:42;;;;;;;0.10;0.10;;;;;;;22.33;45.49;101859.28;4572343;27;20449;-57
2023/05/03 02:56:55;;;;;;;0.25;0.20;;;;;;;22.34;45.45;101864.72;4557414;27;20148;-57
2023/05/03 02:59:06;;;;;;;0.75;0.15;;;;;;;22.32;45.51;101869.13;4572295;27;20452;-57
2023/05/03 03:01:16;;;;;;;0.20;0.20;;;;;;;22.32;45.27;101874.88;4571304;27;20507;-57
2023/05/03 03:03:27;;;;;;;0.40;0.30;;;;;;;22.30;44.84;101863.72;4556221;27;20037;-57
2023/05/03 03:05:37;;;;;;;0.10;0.10;;;;;;;22.33;45.25;101876.56;4572580;27;20043;-57
2023/05/03 03:07:48;;;;;;;0.10;0.10;;;;;;;22.32;45.09;101880.63;4571809;27;20609;-57
2023/05/03 03:09:59;;;;;;;0.20;0.20;;;;;;;22.31;45.15;101881.84;4572717;27;20428;-58
2023/05/03 03:12:10;;;;;;;0.17;0.17;;;;;;;22.30;45.42;101874.38;4562327;27;20598;-57
2023/05/03 03:14:20;;;;;;;0.35;0.22;;;;;;;22.31;45.19;101873.22;4572769;27;20052;-57
2023/05/03 03:16:31;;;;;;;0.20;0.20;;;;;;;22.30;45.65;101874.38;4556947;27;20737;-56
2023/05/03 03:18:42;;;;;;;0.60;0.20;;;;;;;22.31;45.22;101878.97;4571645;27;20036;-57
2023/05/03 03:20:52;;;;;;;0.73;0.20;;;;;;;22.26;45.17;101862.75;4552962;27;20568;-57
2023/05/03 03:23:04;;;;;;;0.10;0.10;;;;;;;22.29;45.63;101869.81;4554084;27;20036;-56
2023/05/03 03:25:15;;;;;;;0.10;0.10;;;;;;;22.28;45.49;101871.03;4556438;27;20032;-57
2023/05/03 03:27:26;;;;;;;0.25;0.25;;;;;;;22.25;45.55;101866.78;4543198;27;20028;-57
2023/05/03 03:29:36;;;;;;;0.20;0.20;;;;;;;22.26;45.46;101870.53;4569445;27;20031;-58
2023/05/03 03:31:48;;;;;;;0.10;0.10;;;;;;;22.26;45.47;101862.75;4554429;28;20190;-58
2023/05/03 03:33:59;;;;;;;0.20;0.10;;;;;;;22.27;45.21;101866.44;4556694;27;20052;-57
2023/05/03 03:36:12;;;;;;;0.20;0.20;;;;;;;22.27;45.15;101857.81;4560093;27;20028;-57
2023/05/03 03:38:26;;;;;;;0.22;0.13;;;;;;;22.26;45.60;101862.75;4572604;27;20031;-57
2023/05/03 03:40:42;;;;;;;0.60;0.22;;;;;;;22.26;45.42;101856.16;4569618;27;20069;-57
2023/05/03 03:42:53;;;;;;;0.10;0.10;;;;;;;22.26;45.37;101861.91;4543634;27;20044;-57
2023/05/03 03:45:03;;;;;;;0.22;0.20;;;;;;;22.24;45.62;101859.38;4553087;27;20746;-58
2023/05/03 03:47:14;;;;;;;0.20;0.20;;;;;;;22.21;45.01;101855.13;4569976;27;20880;-58
2023/05/03 03:49:24;;;;;;;0.20;0.20;;;;;;;22.25;45.40;101863.09;4555083;27;20033;-57
2023/05/03 03:51:35;;;;;;;0.30;0.20;;;;;;;22.21;45.21;101860.88;4553117;27;20025;-58
2023/05/03 03:53:46;;;;;;;0.20;0.20;;;;;;;22.22;45.29;101861.75;4569404;27;20091;-57
2023/05/03 03:55:56;;;;;;;0.30;0.30;;;;;;;22.21;45.48;101860.06;4572188;27;20122;-57
2023/05/03 03:58:08;;;;;;;0.20;0.20;;;;;;;22.23;45.18;101868.34;4551378;27;20036;-58
2023/05/03 04:00:19;;;;;;;0.20;0.20;;;;;;;22.21;45.26;101860.88;4554737;27;20037;-57
2023/05/03 04:02:35;;;;;;;0.52;0.25;;;;;;;22.21;45.42;101872.41;4567520;27;20035;-57
2023/05/03 04:04:46;;;;;;;0.10;0.10;;;;;;;22.21;45.50;101872.41;4552268;27;20183;-57
2023/05/03 04:07:00;;;;;;;0.20;0.20;;;;;;;22.20;45.26;101869.88;4555408;28;20978;-57
2023/05/03 04:09:12;;;;;;;0.10;0.10;;;;;;;22.19;45.56;101863.28;4550246;27;20032;-55
2023/05/03 04:11:23;;;;;;;0.20;0.20;;;;;;;22.20;45.18;101869.88;4555356;27;20039;-57
2023/05/03 04:13:38;;;;;;;0.20;0.20;;;;;;;22.19;45.24;101862.44;4555005;27;20167;-57
2023/05/03 04:15:53;;;;;;;0.73;0.10;;;;;;;22.19;45.82;101863.28;4572056;27;20733;-57
2023/05/03 04:18:04;;;;;;;0.30;0.30;;;;;;;22.17;45.43;101865.66;4573360;27;20102;-57
2023/05/03 04:20:16;;;;;;;0.20;0.20;;;;;;;22.07;45.29;101843.06;4550154;27;20132;-57
2023/05/03 04:22:31;;;;;;;0.20;0.20;;;;;;;22.18;45.42;101867.34;4539224;27;20040;-58
2023/05/03 04:24:42;;;;;;;0.17;0.17;;;;;;;22.13;45.18;101853.19;4550693;28;21149;-57
2023/05/03 04:26:53;;;;;;;0.30;0.30;;;;;;;22.16;45.19;101869.75;4571668;27;20044;-57
2023/05/03 04:29:14;;;;;;;0.25;0.20;;;;;;;22.17;45.39;101874.28;4542122;27;20102;-57
2023/05/03 04:31:27;;;;;;;0.20;0.20;;;;;;;22.16;45.30;101878.38;4567925;27;20031;-57
2023/05/03 04:33:38;;;;;;;0.10;0.10;;;;;;;22.16;45.59;101878.38;4551617;27;20115;-57
2023/05/03 04:35:50;;;;;;;0.20;0.20;;;;;;;22.14;45.24;101872.13;4554571;27;20029;-57
2023/05/03 04:38:02;;;;;;;0.28;0.20;;;;;;;22.11;45.53;101866.22;4550206;27;20144;-57
2023/05/03 04:40:16;;;;;;;0.10;0.10;;;;;;;22.15;45.28;101867.22;4542704;27;20039;-57
2023/05/03 04:42:30;;;;;;;0.13;0.10;;;;;;;22.08;45.23;101862.00;4553266;27;20095;-57
2023/05/03 04:44:41;;;;;;;0.20;0.20;;;;;;;22.14;45.00;101869.25;4554545;27;20124;-57
2023/05/03 04:46:52;;;;;;;0.20;0.20;;;;;;;22.12;45.14;101868.75;4551985;27;20875;-57
2023/05/03 04:49:02;;;;;;;0.20;0.20;;;;;;;22.12;45.05;101868.75;4572312;27;20116;-57
2023/05/03 04:51:13;;;;;;;0.30;0.30;;;;;;;22.12;45.08;101865.84;4550842;27;20068;-58
2023/05/03 04:53:25;;;;;;;0.40;0.20;;;;;;;22.09;45.22;101857.94;4551606;27;20041;-57
2023/05/03 04:55:46;;;;;;;0.45;0.25;;;;;;;22.10;45.30;101858.78;4555298;27;20826;-57
2023/05/03 04:57:56;;;;;;;0.20;0.20;;;;;;;22.13;45.26;101858.94;4542011;27;20338;-57
2023/05/03 05:00:10;;;;;;;0.22;0.20;;;;;;;22.13;45.04;101864.69;4569988;27;20119;-57
2023/05/03 05:02:22;;;;;;;0.10;0.10;;;;;;;22.13;45.22;101864.69;4543001;28;20679;-57
2023/05/03 05:04:32;;;;;;;0.20;0.20;;;;;;;22.11;45.09;101861.31;4553851;27;20041;-57
2023/05/03 05:06:44;;;;;;;0.10;0.10;;;;;;;22.10;45.38;101853.03;4544214;27;20528;-57
2023/05/03 05:08:59;;;;;;;0.10;0.10;;;;;;;22.06;45.35;101849.16;4566680;27;20059;-56
2023/05/03 05:11:12;;;;;;;0.57;0.20;;;;;;;22.12;45.32;101857.25;4554527;27;20036;-56
2023/05/03 05:13:23;;;;;;;0.68;0.20;;;;;;;22.09;45.35;101851.34;4553195;27;20041;-57
2023/05/03 05:15:33;;;;;;;0.60;0.20;;;;;;;22.05;44.89;101845.47;4570937;27;20578;-57
2023/05/03 05:17:44;;;;;;;0.20;0.20;;;;;;;22.10;44.99;101858.78;4553409;28;20043;-58
2023/05/03 05:19:55;;;;;;;0.10;0.10;;;;;;;22.05;45.13;101845.47;4551978;27;20054;-58
2023/05/03 05:22:05;;;;;;;0.38;0.30;;;;;;;22.07;45.15;101851.69;4555284;27;20038;-57
2023/05/03 05:24:33;;;;;;;0.70;0.30;;;;;;;22.05;45.08;101851.22;4554952;27;20120;-57
2023/05/03 05:26:45;;;;;;;0.22;0.10;;;;;;;22.08;45.10;101862.00;4538019;28;20588;-58
2023/05/03 05:28:57;;;;;;;0.10;0.10;;;;;;;22.08;45.08;101858.28;4538510;27;20790;-58
2023/05/03 05:31:08;;;;;;;0.75;0.15;;;;;;;22.08;44.99;101867.75;4555624;27;20040;-58
2023/05/03 05:33:19;;;;;;;0.57;0.15;;;;;;;22.07;45.11;101873.88;4555390;27;20033;-56
2023/05/03 05:35:31;;;;;;;0.10;0.10;;;;;;;22.05;45.05;101874.22;4543763;27;20028;-58
2023/05/03 05:37:41;;;;;;;0.22;0.22;;;;;;;22.07;45.15;101877.56;4551171;27;20036;-57
2023/05/03 05:39:53;;;;;;;0.10;0.10;;;;;;;22.06;45.13;101878.75;4555729;28;20079;-57
2023/05/03 05:42:06;;;;;;;0.20;0.20;;;;;;;22.05;45.26;101874.22;4543959;27;20045;-58
2023/05/03 05:44:17;;;;;;;0.20;0.20;;;;;;;22.06;45.30;101886.53;4550870;27;20151;-58
2023/05/03 05:46:29;;;;;;;0.40;0.20;;;;;;;22.00;45.39;101883.03;4555364;27;20094;-57
2023/05/03 05:48:40;;;;;;;0.10;0.10;;;;;;;21.95;35.69;101888.97;4539042;27;20071;-57
2023/05/03 05:50:51;;;;;;;0.10;0.10;;;;;;;21.86;38.09;101888.16;4555656;27;20644;-58
2023/05/03 05:53:01;;;;;;;0.70;0.30;;;;;;;21.90;42.12;101900.66;4569203;27;20036;-58
2023/05/03 05:55:15;;;;;;;0.52;0.20;;;;;;;21.86;42.98;101904.56;4552664;27;20732;-58
2023/05/03 05:57:28;;;;;;;0.20;0.20;;;;;;;21.96;44.09;101909.94;4537693;28;20235;-57
2023/05/03 05:59:39;;;;;;;0.10;0.10;;;;;;;22.00;44.93;101913.81;4543006;27;20771;-57
2023/05/03 06:01:50;;;;;;;0.22;0.20;;;;;;;22.01;44.83;101910.56;4550976;27;20587;-57
2023/05/03 06:04:03;;;;;;;0.20;0.20;;;;;;;22.01;44.22;101904.81;4552873;27;20021;-58
2023/05/03 06:06:14;;;;;;;0.30;0.30;;;;;;;21.99;42.61;101909.25;4565169;27;20040;-58
2023/05/03 06:08:24;;;;;;;0.93;0.20;;;;;;;21.99;43.80;101904.31;4572201;27;20028;-58
2023/05/03 06:10:35;;;;;;;0.30;0.20;;;;;;;22.02;42.53;101906.50;4554724;28;20522;-56
2023/05/03 06:12:46;;;;;;;0.95;0.30;;;;;;;22.01;42.33;101910.56;4568822;27;20028;-57
2023/05/03 06:15:02;;;;;;;0.47;0.30;;;;;;;22.01;42.58;101912.59;4556817;27;20024;-57
2023/05/03 06:17:14;;;;;;;0.20;0.10;;;;;;;21.88;42.13;101885.78;4550604;27;20070;-57
2023/05/03 06:19:24;;;;;;;0.30;0.30;;;;;;;21.95;42.34;101903.34;4554813;27;20066;-57
2023/05/03 06:21:35;;;;;;;0.68;0.30;;;;;;;21.99;42.17;101912.94;4571818;27;20049;-56
2023/05/03 06:23:46;;;;;;;0.28;0.20;;;;;;;21.99;42.63;101918.69;4536683;27;20535;-57
2023/05/03 06:25:57;;;;;;;0.20;0.20;;;;;;;22.00;42.22;101929.03;4572896;27;20036;-57
2023/05/03 06:28:08;;;;;;;0.13;0.13;;;;;;;22.00;41.94;101929.03;4574018;27;20033;-57
2023/05/03 06:30:20;;;;;;;0.20;0.20;;;;;;;22.01;41.74;101933.56;4557130;27;20964;-57
2023/05/03 06:32:32;;;;;;;0.35;0.20;;;;;;;21.97;39.42;101928.88;4538740;27;20032;-57
2023/05/03 06:34:43;;;;;;;0.20;0.20;;;;;;;22.03;44.60;101936.09;4540463;27;20405;-57
2023/05/03 06:36:53;;;;;;;0.28;0.20;;;;;;;22.00;45.05;101928.16;4557738;27;20063;-57
2023/05/03 06:39:04;;;;;;;0.20;0.17;;;;;;;22.04;44.86;101934.94;4572173;27;20028;-58
2023/05/03 06:41:15;;;;;;;0.20;0.20;;;;;;;22.02;44.87;101938.13;4573502;27;20047;-58
2023/05/03 06:43:25;;;;;;;0.50;0.30;;;;;;;22.01;44.82;101930.69;4572557;27;20381;-57
2023/05/03 06:45:41;;;;;;;0.30;0.20;;;;;;;22.04;44.80;101935.75;4554956;27;20040;-57
2023/05/03 06:47:52;;;;;;;0.20;0.20;;;;;;;22.02;44.99;101929.50;4556046;27;20147;-57
2023/05/03 06:50:02;;;;;;;0.20;0.20;;;;;;;21.87;45.12;101907.09;4574480;27;20085;-58
2023/05/03 06:52:13;;;;;;;0.20;0.20;;;;;;;21.99;44.96;101924.44;4570419;27;20142;-59
2023/05/03 06:54:24;;;;;;;0.10;0.10;;;;;;;22.03;45.49;101936.09;4570210;27;20028;-60
2023/05/03 06:56:35;;;;;;;0.10;0.10;;;;;;;22.04;45.50;101930.00;4542797;27;20033;-60
2023/05/03 06:58:46;;;;;;;0.10;0.10;;;;;;;21.96;45.12;101915.69;4573632;27;21220;-58
2023/05/03 07:00:56;;;;;;;0.20;0.20;;;;;;;21.99;45.18;101912.94;4574163;27;20067;-58
2023/05/03 07:03:07;;;;;;;0.20;0.20;;;;;;;22.03;45.55;101931.22;4570775;27;20067;-58
2023/05/03 07:05:17;;;;;;;0.10;0.10;;;;;;;22.01;45.13;101924.94;4571853;27;20036;-57
2023/05/03 07:07:28;;;;;;;0.30;0.20;;;;;;;22.02;45.48;101932.38;4558468;27;20555;-57
2023/05/03 07:09:38;;;;;;;0.13;0.10;;;;;;;22.04;45.69;101929.19;4571629;27;20120;-58
2023/05/03 07:11:50;;;;;;;0.57;0.20;;;;;;;22.01;45.51;101924.09;4573976;27;20107;-58
2023/05/03 07:14:01;;;;;;;0.20;0.10;;;;;;;22.02;45.54;101923.75;4573847;27;20076;-57
2023/05/03 07:16:11;;;;;;;0.20;0.20;;;;;;;22.02;45.58;101937.31;4573750;27;20429;-58
2023/05/03 07:18:21;;;;;;;0.20;0.20;;;;;;;21.99;45.62;101921.56;4573243;27;20063;-57
2023/05/03 07:20:32;;;;;;;0.22;0.20;;;;;;;22.02;45.55;101926.63;4573543;27;20068;-58
2023/05/03 07:22:43;;;;;;;0.30;0.20;;;;;;;22.03;45.26;101931.22;4572714;27;20063;-58
2023/05/03 07:24:54;;;;;;;0.32;0.20;;;;;;;21.98;45.35;101917.03;4573200;27;20510;-57
2023/05/03 07:27:05;;;;;;;0.20;0.20;;;;;;;22.01;45.22;101927.81;4573340;27;20105;-58
2023/05/03 07:29:15;;;;;;;0.52;0.30;;;;;;;22.01;45.28;101919.19;4571537;27;20501;-57
2023/05/03 07:31:26;;;;;;;0.20;0.20;;;;;;;21.98;45.72;101919.91;4555398;27;20028;-58
2023/05/03 07:33:36;;;;;;;0.25;0.20;;;;;;;22.01;45.68;101916.31;4549286;27;20089;-57
2023/05/03 07:35:48;;;;;;;0.20;0.20;;;;;;;21.98;45.69;101922.78;4570179;27;20140;-57
2023/05/03 07:37:58;;;;;;;0.10;0.10;;;;;;;21.93;45.41;101920.09;4555743;27;20040;-58
2023/05/03 07:40:10;;;;;;;0.20;0.20;;;;;;;21.90;45.77;101902.66;4572620;27;20551;-58
2023/05/03 07:42:21;;;;;;;0.40;0.20;;;;;;;21.90;45.21;101900.66;4573106;27;20032;-58
2023/05/03 07:44:31;;;;;;;0.28;0.20;;;;;;;21.98;45.45;101911.28;4573189;27;20568;-58
2023/05/03 07:46:42;;;;;;;0.10;0.10;;;;;;;21.99;45.99;101909.25;4570994;27;20531;-58
2023/05/03 07:48:52;;;;;;;1.02;0.50;;;;;;;21.96;46.11;101912.81;4573575;27;20435;-58
2023/05/03 07:51:04;;;;;;;2.45;0.80;;;;;;;21.90;48.56;101912.16;4572036;27;20445;-58
2023/05/03 07:53:20;;;;;;;0.25;0.25;;;;;;;21.87;47.86;101892.72;4571219;27;20039;-58
2023/05/03 07:55:31;;;;;;;0.22;0.20;;;;;;;21.94;45.79;101912.31;4569843;27;20147;-58
2023/05/03 07:57:42;;;;;;;0.28;0.20;;;;;;;21.94;46.01;101907.41;4571287;27;20028;-58
2023/05/03 07:59:52;;;;;;;1.35;0.30;;;;;;;21.95;46.13;101909.09;4570701;27;20044;-57
2023/05/03 08:02:03;;;;;;;2.67;0.55;;;;;;;21.92;47.91;101904.03;4567633;27;20036;-59
2023/05/03 08:04:13;;;;;;;4.03;0.90;;;;;;;21.95;48.05;101900.47;4568744;27;20028;-58
2023/05/03 08:06:24;;;;;;;3.30;0.90;;;;;;;21.91;48.57;101895.75;4554710;27;20040;-58
2023/05/03 08:08:34;;;;;;;2.63;0.80;;;;;;;21.92;48.37;101898.28;4570813;27;20461;-58
2023/05/03 08:10:45;;;;;;;4.15;0.77;;;;;;;21.94;48.15;101895.06;4569255;27;20020;-58
2023/05/03 08:12:55;;;;;;;2.17;0.50;;;;;;;21.95;47.76;101885.25;4571806;27;20603;-58
2023/05/03 08:15:06;;;;;;;1.52;0.60;;;;;;;21.94;47.86;101878.66;4570951;27;20735;-58
2023/05/03 08:17:17;;;;;;;0.45;0.30;;;;;;;21.92;46.71;101880.19;4570113;27;20142;-58
2023/05/03 08:19:27;;;;;;;1.27;0.50;;;;;;;21.90;46.21;101882.56;4570467;27;20030;-59
2023/05/03 08:21:38;;;;;;;1.75;0.47;;;;;;;21.81;47.09;101856.75;4552172;27;20045;-58
2023/05/03 08:23:48;;;;;;;1.25;0.60;;;;;;;21.96;46.38;101887.75;4570136;27;20036;-59
2023/05/03 08:25:59;;;;;;;1.90;0.60;;;;;;;21.97;44.19;101886.59;4571036;27;20066;-58
2023/05/03 08:28:10;;;;;;;1.85;0.50;;;;;;;21.94;46.49;101884.41;4570196;27;20098;-59
2023/05/03 08:30:20;;;;;;;1.17;0.40;;;;;;;21.94;46.61;101884.41;4572036;27;20036;-59
2023/05/03 08:32:31;;;;;;;1.20;0.50;;;;;;;21.95;45.91;101886.09;4570549;27;20115;-58
2023/05/03 08:34:41;;;;;;;2.20;0.50;;;;;;;21.95;46.61;101879.50;4550323;27;20036;-58
2023/05/03 08:36:52;;;;;;;2.28;0.40;;;;;;;22.00;46.74;101882.16;4570999;27;20777;-59
2023/05/03 08:39:06;;;;;;;1.50;0.40;;;;;;;21.95;46.96;101868.84;4570851;27;20151;-58
2023/05/03 08:41:30;;;;;;;0.70;0.30;;;;;;;22.03;46.44;101882.31;4553497;27;20858;-59
2023/05/03 08:43:44;;;;;;;0.65;0.38;;;;;;;22.02;46.40;101882.69;4570571;27;20064;-59
2023/05/03 08:45:55;;;;;;;1.10;0.40;;;;;;;21.99;46.39;101881.31;4571947;27;20028;-58
2023/05/03 08:48:05;;;;;;;2.13;0.40;;;;;;;22.00;46.75;101883.03;4553245;27;20071;-57
2023/05/03 08:50:16;;;;;;;1.58;0.60;;;;;;;22.00;46.55;101882.16;4572704;27;20032;-59
2023/05/03 08:52:26;;;;;;;0.57;0.40;;;;;;;21.94;42.83;101881.53;4569039;27;20118;-58
2023/05/03 08:54:37;;;;;;;1.13;0.38;;;;;;;21.95;46.06;101877.47;4571043;27;20039;-58
2023/05/03 08:56:48;;;;;;;0.65;0.30;;;;;;;21.98;45.79;101882.53;4569996;27;20557;-58
2023/05/03 08:59:06;;;;;;;2.08;0.43;;;;;;;21.96;46.37;101870.50;4571380;27;20112;-58
2023/05/03 09:01:16;;;;;;;0.68;0.30;;;;;;;21.98;46.68;101867.28;4571307;27;20043;-58
2023/05/03 09:03:27;;;;;;;0.30;0.30;;;;;;;21.98;42.30;101879.66;4573349;27;20027;-58
2023/05/03 09:05:39;;;;;;;0.70;0.50;;;;;;;22.02;46.50;101869.13;4571927;27;20033;-58
2023/05/03 09:08:08;;;;;;;0.47;0.40;;;;;;;22.04;46.76;101866.75;4572211;27;20567;-59
2023/05/03 09:10:23;;;;;;;1.00;0.40;;;;;;;22.04;46.67;101875.38;4570099;27;20095;-60
2023/05/03 09:12:39;;;;;;;0.60;0.35;;;;;;;22.01;46.72;101872.34;4572459;27;20528;-59
2023/05/03 09:14:50;;;;;;;0.73;0.40;;;;;;;22.01;46.55;101873.19;4571858;27;20042;-60
2023/05/03 09:17:15;;;;;;;1.95;0.30;;;;;;;22.06;46.74;101870.13;4570110;27;20097;-60
2023/05/03 09:19:25;;;;;;;0.38;0.30;;;;;;;22.08;46.55;101878.41;4569339;27;20040;-58
2023/05/03 09:21:36;;;;;;;0.82;0.20;;;;;;;21.96;46.98;101858.19;4570971;27;20044;-61
2023/05/03 09:23:47;;;;;;;0.63;0.40;;;;;;;22.08;46.90;101879.25;4569173;27;20550;-59
2023/05/03 09:25:58;;;;;;;0.73;0.30;;;;;;;22.06;46.50;101869.28;4555352;27;20823;-59
2023/05/03 09:28:09;;;;;;;1.92;0.55;;;;;;;22.04;46.58;101872.50;4568762;27;20067;-59
2023/05/03 09:30:20;;;;;;;0.60;0.28;;;;;;;22.09;46.41;101875.19;4570143;27;20123;-60
2023/05/03 09:32:46;;;;;;;0.32;0.20;;;;;;;22.14;46.71;101877.88;4571925;27;20078;-58
2023/05/03 09:35:09;;;;;;;1.40;0.40;;;;;;;22.14;46.39;101869.25;4571448;27;20121;-58
2023/05/03 09:37:35;;;;;;;1.42;0.50;;;;;;;22.12;46.58;101871.63;4569470;27;20064;-58
2023/05/03 09:39:45;;;;;;;0.90;0.30;;;;;;;22.09;46.85;101868.59;4543154;28;20085;-58
2023/05/03 09:41:56;;;;;;;0.20;0.20;;;;;;;22.16;46.86;101868.91;4567379;27;20036;-60
2023/05/03 09:44:07;;;;;;;3.65;0.70;;;;;;;22.16;48.66;101881.25;4570223;27;20028;-58
2023/05/03 09:46:18;;;;;;;1.27;0.40;;;;;;;22.17;47.71;101871.41;4571186;27;20480;-58
2023/05/03 09:48:28;;;;;;;2.40;0.55;;;;;;;22.21;48.06;101874.44;4570360;27;20020;-58
2023/05/03 09:50:40;;;;;;;1.98;0.57;;;;;;;22.18;48.19;101872.28;4554477;27;20036;-58
2023/05/03 09:52:51;;;;;;;1.67;0.50;;;;;;;22.14;48.51;101872.13;4571053;27;20567;-58
2023/05/03 09:55:01;;;;;;;2.00;0.70;;;;;;;22.15;49.64;101868.03;4571797;27;20036;-58
2023/05/03 09:57:13;;;;;;;3.22;0.82;;;;;;;22.16;50.70;101858.25;4573762;27;20048;-58
2023/05/03 09:59:24;;;;;;;2.65;0.60;;;;;;;22.25;50.64;101863.09;4574393;27;20040;-58
2023/05/03 10:01:34;;;;;;;3.20;0.90;;;;;;;22.19;50.73;101856.69;4572894;27;20480;-58
2023/05/03 10:03:49;;;;;;;2.95;0.80;;;;;;;22.21;50.41;101854.31;4556722;27;20497;-58
2023/05/03 10:06:02;;;;;;;2.00;0.70;;;;;;;22.20;49.86;101852.63;4573621;27;20036;-59
2023/05/03 10:08:32;;;;;;;2.90;0.85;;;;;;;22.17;49.39;101848.41;4576638;27;20032;-58
2023/05/03 10:10:44;;;;;;;9.40;1.98;;;;;;;22.26;50.01;101856.16;4576802;27;20043;-58
2023/05/03 10:12:56;;;;;;;5.43;1.48;;;;;;;22.25;50.10;101851.59;4574900;27;20083;-58
2023/05/03 10:15:09;;;;;;;8.02;2.03;;;;;;;22.19;50.35;101830.81;4554482;27;20748;-57